Time;durP1;ratioP1;P1;durP2;ratioP2;P2;SDS_P1;SDS_P2;PMS_P1;PMS_P2;Temp;Humidity;BMP_temperature;BMP_pressure;BME280_temperature;BME280_humidity;BME280_pressure;Samples;Min_cycle;Max_cycle;Signal;HPM_P1;HPM_P2
2024/04/01 00:00:39;;;;;;;0.05;0.05;;;;;;;17.38;32.20;92584.31;5051775;28;20041;-47
2024/04/01 00:03:04;;;;;;;0.30;0.10;;;;;;;17.27;31.89;92568.94;5068560;28;20020;-45
2024/04/01 00:05:30;;;;;;;0.10;0.10;;;;;;;17.42;31.64;92573.19;5058418;28;20114;-44
2024/04/01 00:07:56;;;;;;;0.55;0.20;;;;;;;17.18;32.10;92574.84;5071085;28;20047;-45
2024/04/01 00:10:25;;;;;;;0.03;0.00;;;;;;;16.60;32.76;92564.47;5071103;28;20025;-44
2024/04/01 00:12:51;;;;;;;0.88;0.10;;;;;;;16.52;32.77;92542.25;5073043;28;20056;-44
2024/04/01 00:15:18;;;;;;;0.10;0.10;;;;;;;16.79;32.80;92557.44;5065619;28;20060;-44
2024/04/01 00:17:43;;;;;;;0.15;0.10;;;;;;;16.81;32.76;92544.81;5068448;28;20070;-45
2024/04/01 00:20:09;;;;;;;0.10;0.10;;;;;;;16.96;32.45;92546.50;5087063;28;20025;-44
2024/04/01 00:22:34;;;;;;;0.00;0.00;;;;;;;17.22;32.12;92532.25;5070716;28;20028;-44
2024/04/01 00:25:00;;;;;;;0.52;0.00;;;;;;;17.19;32.07;92521.25;5081571;28;20468;-45
2024/04/01 00:27:26;;;;;;;0.10;0.03;;;;;;;17.24;31.92;92504.63;5061262;28;20021;-45
2024/04/01 00:29:51;;;;;;;0.10;0.10;;;;;;;17.38;31.55;92509.94;5068980;28;20071;-44
2024/04/01 00:32:16;;;;;;;0.20;0.00;;;;;;;17.25;32.27;92505.41;5034993;28;20098;-46
2024/04/01 00:34:42;;;;;;;0.08;0.08;;;;;;;16.79;33.79;92499.69;5069569;28;20066;-46
2024/04/01 00:37:07;;;;;;;0.10;0.10;;;;;;;16.99;33.51;92492.63;5064144;28;20143;-46
2024/04/01 00:39:33;;;;;;;0.10;0.00;;;;;;;17.05;33.46;92481.00;5067431;28;20401;-45
2024/04/01 00:41:58;;;;;;;0.22;0.13;;;;;;;16.97;33.50;92477.16;5054536;28;20032;-45
2024/04/01 00:44:24;;;;;;;0.00;0.00;;;;;;;16.52;34.56;92483.75;5070722;28;20392;-44
2024/04/01 00:46:50;;;;;;;0.32;0.10;;;;;;;16.65;34.52;92498.81;5070870;28;20038;-44
2024/04/01 00:49:17;;;;;;;0.00;0.00;;;;;;;16.71;33.82;92500.31;5056263;28;20044;-44
2024/04/01 00:51:43;;;;;;;0.00;0.00;;;;;;;16.51;35.73;92488.25;5070947;28;20043;-44
2024/04/01 00:54:09;;;;;;;0.22;0.08;;;;;;;16.52;35.70;92470.66;5054183;28;20064;-45
2024/04/01 00:56:35;;;;;;;0.17;0.10;;;;;;;16.22;35.76;92485.66;5071301;28;20108;-46
2024/04/01 00:59:03;;;;;;;0.22;0.08;;;;;;;16.40;35.29;92450.84;5072522;28;20032;-47
2024/04/01 01:01:30;;;;;;;0.10;0.10;;;;;;;16.01;36.33;92404.63;5070680;28;20426;-46
2024/04/01 01:03:56;;;;;;;0.17;0.10;;;;;;;15.87;35.75;92442.28;5067299;28;20043;-49
2024/04/01 01:06:24;;;;;;;0.08;0.08;;;;;;;16.06;35.09;92437.09;5071705;28;20028;-46
2024/04/01 01:08:50;;;;;;;0.10;0.10;;;;;;;16.02;34.98;92415.91;5066346;28;20049;-46
2024/04/01 01:11:16;;;;;;;0.00;0.00;;;;;;;16.12;36.12;92415.75;5080849;28;20112;-46
2024/04/01 01:13:41;;;;;;;0.00;0.00;;;;;;;16.03;36.06;92399.13;5071800;28;20020;-48
2024/04/01 01:16:08;;;;;;;0.38;0.00;;;;;;;15.83;35.85;92369.44;5069821;28;20036;-44
2024/04/01 01:18:33;;;;;;;0.08;0.08;;;;;;;16.30;34.42;92356.56;5067260;28;20029;-45
2024/04/01 01:20:59;;;;;;;0.10;0.00;;;;;;;16.29;34.66;92438.91;5065588;28;20024;-46
2024/04/01 01:23:24;;;;;;;0.00;0.00;;;;;;;15.90;36.96;92468.72;5070811;28;20032;-45
2024/04/01 01:25:49;;;;;;;0.32;0.08;;;;;;;15.76;37.02;92473.03;5061610;28;20377;-45
2024/04/01 01:28:15;;;;;;;0.10;0.10;;;;;;;15.78;37.30;92466.47;5049477;28;20123;-44
2024/04/01 01:30:40;;;;;;;0.93;0.22;;;;;;;15.89;37.00;92469.00;5053138;28;20036;-46
2024/04/01 01:33:07;;;;;;;0.38;0.10;;;;;;;15.74;37.01;92441.09;5070778;28;20036;-44
2024/04/01 01:35:37;;;;;;;0.40;0.10;;;;;;;15.80;37.99;92450.44;5053635;28;20094;-47
2024/04/01 01:38:03;;;;;;;0.40;0.10;;;;;;;15.92;37.03;92450.88;5068566;28;20035;-44
2024/04/01 01:40:29;;;;;;;0.17;0.10;;;;;;;15.47;37.85;92420.63;5069582;28;20029;-46
2024/04/01 01:42:55;;;;;;;0.00;0.00;;;;;;;15.29;38.36;92401.13;5070664;28;20031;-48
2024/04/01 01:45:20;;;;;;;0.00;0.00;;;;;;;15.39;37.98;92409.69;5065240;28;20032;-44
2024/04/01 01:47:46;;;;;;;0.08;0.08;;;;;;;15.45;37.71;92439.22;5067713;28;20044;-48
2024/04/01 01:50:11;;;;;;;0.10;0.10;;;;;;;15.51;38.61;92409.31;5058608;28;20037;-45
2024/04/01 01:52:37;;;;;;;0.10;0.10;;;;;;;15.73;37.26;92416.72;5080219;28;20060;-45
2024/04/01 01:55:04;;;;;;;0.10;0.10;;;;;;;14.84;38.54;92396.75;5042041;28;20048;-46
2024/04/01 01:57:30;;;;;;;0.10;0.10;;;;;;;14.52;37.60;92407.66;5085255;28;20033;-44
2024/04/01 01:59:56;;;;;;;0.25;0.10;;;;;;;15.00;38.57;92394.03;5069044;28;20032;-48
2024/04/01 02:02:21;;;;;;;0.10;0.10;;;;;;;15.23;37.96;92418.72;5069356;28;20030;-45
2024/04/01 02:04:47;;;;;;;0.10;0.10;;;;;;;15.48;35.88;92406.44;5061882;28;20021;-44
2024/04/01 02:07:12;;;;;;;0.10;0.10;;;;;;;15.32;37.10;92397.97;5034195;28;20102;-49
2024/04/01 02:09:38;;;;;;;0.10;0.10;;;;;;;15.12;38.21;92394.47;5069546;28;20028;-46
2024/04/01 02:12:09;;;;;;;1.02;0.10;;;;;;;15.36;37.64;92357.84;5069343;28;20028;-44
2024/04/01 02:14:36;;;;;;;0.45;0.10;;;;;;;15.20;37.53;92338.13;5051023;28;20082;-46
2024/04/01 02:17:02;;;;;;;0.17;0.10;;;;;;;15.58;36.49;92362.59;5063243;28;20024;-44
2024/04/01 02:19:28;;;;;;;0.13;0.10;;;;;;;15.89;35.85;92414.72;5070705;28;20086;-46
2024/04/01 02:21:54;;;;;;;0.00;0.00;;;;;;;15.71;37.01;92390.00;5067904;28;20031;-44
2024/04/01 02:24:19;;;;;;;0.08;0.08;;;;;;;15.79;37.99;92418.22;5064298;28;20029;-44
2024/04/01 02:26:44;;;;;;;0.00;0.00;;;;;;;16.02;36.79;92382.59;5041338;28;20033;-45
2024/04/01 02:29:10;;;;;;;0.15;0.00;;;;;;;15.76;36.28;92376.88;5069852;28;20116;-44
2024/04/01 02:31:36;;;;;;;0.00;0.00;;;;;;;15.43;37.41;92370.63;5058942;28;20055;-44
2024/04/01 02:34:02;;;;;;;0.10;0.10;;;;;;;15.68;36.52;92403.63;5068973;28;20032;-44
2024/04/01 02:36:28;;;;;;;0.10;0.10;;;;;;;16.11;35.20;92434.41;5069285;28;20094;-44
2024/04/01 02:38:53;;;;;;;0.05;0.05;;;;;;;16.32;35.79;92453.31;5067601;28;20493;-45
2024/04/01 02:41:18;;;;;;;1.33;0.20;;;;;;;16.52;34.85;92453.06;5066633;28;20043;-44
2024/04/01 02:43:44;;;;;;;0.10;0.10;;;;;;;16.61;35.08;92450.59;5065536;28;20029;-47
2024/04/01 02:46:09;;;;;;;0.10;0.10;;;;;;;16.80;34.78;92469.75;5070038;28;20036;-46
2024/04/01 02:48:35;;;;;;;0.22;0.20;;;;;;;16.66;34.84;92484.66;5068748;28;20024;-46
2024/04/01 02:51:01;;;;;;;0.10;0.00;;;;;;;16.58;34.29;92451.94;5052092;28;20036;-46
2024/04/01 02:53:26;;;;;;;0.10;0.10;;;;;;;16.72;35.25;92473.03;5052307;28;20062;-47
2024/04/01 02:55:52;;;;;;;0.10;0.10;;;;;;;16.70;35.64;92479.63;5058899;28;20049;-44
2024/04/01 02:58:17;;;;;;;0.17;0.17;;;;;;;16.65;35.21;92472.56;5051976;28;20033;-44
2024/04/01 03:00:45;;;;;;;0.85;0.20;;;;;;;16.72;35.26;92483.50;5061116;28;20115;-45
2024/04/01 03:03:14;;;;;;;0.10;0.10;;;;;;;16.54;35.31;92507.88;5064426;28;20056;-44
2024/04/01 03:05:39;;;;;;;0.08;0.08;;;;;;;16.82;34.54;92501.00;5066196;28;20025;-44
2024/04/01 03:08:09;;;;;;;0.05;0.05;;;;;;;16.80;34.89;92500.47;5067484;28;20049;-44
2024/04/01 03:10:35;;;;;;;0.10;0.10;;;;;;;16.93;34.63;92491.94;5068523;28;20082;-44
2024/04/01 03:13:05;;;;;;;0.55;0.10;;;;;;;16.86;35.05;92498.59;5068693;28;20052;-43
2024/04/01 03:15:31;;;;;;;0.10;0.10;;;;;;;16.98;34.64;92523.38;5065531;28;20021;-45
2024/04/01 03:17:56;;;;;;;0.63;0.10;;;;;;;16.71;35.60;92496.91;5045988;28;20052;-45
2024/04/01 03:20:22;;;;;;;0.43;0.20;;;;;;;16.56;35.96;92511.00;5068493;28;20048;-44
2024/04/01 03:22:47;;;;;;;0.20;0.20;;;;;;;16.30;36.20;92492.94;5071672;28;20051;-45
2024/04/01 03:25:13;;;;;;;0.85;0.20;;;;;;;16.28;35.68;92521.28;5066380;28;20115;-48
2024/04/01 03:27:38;;;;;;;0.22;0.22;;;;;;;16.54;35.46;92549.84;5075046;28;20103;-44
2024/04/01 03:30:05;;;;;;;0.17;0.10;;;;;;;16.61;35.39;92535.34;5060881;28;20028;-48
2024/04/01 03:32:30;;;;;;;0.63;0.13;;;;;;;16.60;36.17;92522.50;5081690;28;20060;-44
2024/04/01 03:34:55;;;;;;;0.10;0.00;;;;;;;16.57;36.84;92518.59;5054316;28;20111;-46
2024/04/01 03:37:21;;;;;;;0.08;0.08;;;;;;;16.47;37.43;92538.91;5065234;28;20028;-44
2024/04/01 03:39:47;;;;;;;0.10;0.10;;;;;;;16.58;37.32;92540.38;5067588;28;20074;-45
2024/04/01 03:42:13;;;;;;;0.08;0.08;;;;;;;16.28;37.54;92505.56;5067909;28;20037;-44
2024/04/01 03:44:39;;;;;;;0.10;0.10;;;;;;;16.39;37.30;92491.25;5035342;28;20541;-47
2024/04/01 03:47:05;;;;;;;0.10;0.10;;;;;;;16.50;37.36;92509.50;5052118;28;20377;-44
2024/04/01 03:49:30;;;;;;;0.10;0.10;;;;;;;16.54;37.13;92542.75;5062925;28;20025;-46
2024/04/01 03:51:56;;;;;;;0.10;0.10;;;;;;;16.76;36.45;92547.50;5067856;28;20042;-44
2024/04/01 03:54:21;;;;;;;0.10;0.10;;;;;;;16.55;37.09;92562.69;5068747;28;20255;-44
2024/04/01 03:56:48;;;;;;;0.95;0.13;;;;;;;16.59;37.48;92574.19;5066349;28;20025;-44
2024/04/01 03:59:15;;;;;;;0.20;0.20;;;;;;;16.64;38.21;92567.31;5069558;28;20085;-46
2024/04/01 04:01:40;;;;;;;1.02;0.22;;;;;;;16.68;38.49;92574.38;5068147;28;20115;-44
2024/04/01 04:04:05;;;;;;;0.10;0.08;;;;;;;16.55;40.20;92573.19;5064440;28;20102;-44
2024/04/01 04:06:31;;;;;;;0.32;0.10;;;;;;;16.46;40.96;92556.50;5076009;28;20525;-45
2024/04/01 04:08:57;;;;;;;0.00;0.00;;;;;;;16.64;40.76;92570.75;5059749;28;20049;-44
2024/04/01 04:11:22;;;;;;;0.10;0.05;;;;;;;16.57;41.72;92607.03;5059226;28;20036;-44
2024/04/01 04:13:48;;;;;;;0.25;0.10;;;;;;;16.55;41.71;92619.66;5068315;28;20031;-46
2024/04/01 04:16:13;;;;;;;5.15;1.20;;;;;;;16.42;42.78;92632.34;5068811;28;20114;-45
2024/04/01 04:18:39;;;;;;;3.97;1.48;;;;;;;16.27;43.25;92645.59;5070044;28;20028;-47
2024/04/01 04:21:09;;;;;;;4.60;1.42;;;;;;;15.69;46.37;92672.47;5070477;28;20028;-44
2024/04/01 04:23:35;;;;;;;7.38;2.20;;;;;;;15.35;48.29;92720.31;5063440;28;20025;-44
2024/04/01 04:26:00;;;;;;;8.73;2.67;;;;;;;15.18;49.48;92731.13;5063937;28;20380;-44
2024/04/01 04:28:25;;;;;;;14.88;2.70;;;;;;;15.12;50.39;92732.19;5071482;28;20074;-45
2024/04/01 04:30:51;;;;;;;7.28;2.55;;;;;;;15.13;49.82;92736.34;5071657;28;20132;-44
2024/04/01 04:33:16;;;;;;;8.48;2.90;;;;;;;15.15;51.21;92741.34;5069611;28;20056;-44
2024/04/01 04:35:42;;;;;;;11.20;3.38;;;;;;;15.11;52.34;92771.72;5067343;28;20029;-43
2024/04/01 04:38:08;;;;;;;8.68;3.58;;;;;;;15.08;53.77;92782.72;5067570;28;20028;-43
2024/04/01 04:40:33;;;;;;;9.05;3.78;;;;;;;14.84;54.67;92806.81;5054753;28;20115;-44
2024/04/01 04:42:59;;;;;;;11.45;4.05;;;;;;;14.88;55.39;92833.25;5069112;28;20113;-44
2024/04/01 04:45:25;;;;;;;12.60;4.47;;;;;;;14.72;55.88;92835.88;5070984;28;20051;-45
2024/04/01 04:47:51;;;;;;;9.10;3.83;;;;;;;14.53;57.04;92853.09;5066609;28;20047;-45
2024/04/01 04:50:20;;;;;;;12.05;4.55;;;;;;;14.39;57.69;92863.25;5062578;28;20032;-47
2024/04/01 04:52:45;;;;;;;10.57;4.32;;;;;;;14.32;57.42;92886.25;5058112;28;20194;-46
2024/04/01 04:55:11;;;;;;;11.98;4.93;;;;;;;14.09;58.70;92909.22;5052921;28;20108;-45
2024/04/01 04:57:36;;;;;;;11.38;4.60;;;;;;;14.24;58.34;92932.78;5068285;28;20111;-45
2024/04/01 05:00:20;;;;;;;7.97;3.05;;;;;;;14.10;58.06;92943.97;5065378;28;20040;-46
2024/04/01 05:02:50;;;;;;;6.40;2.00;;;;;;;13.85;58.48;92958.47;5062127;28;20028;-43
2024/04/01 05:05:16;;;;;;;2.92;1.15;;;;;;;13.75;57.62;92961.03;5071702;28;20025;-44
2024/04/01 05:07:44;;;;;;;2.25;1.00;;;;;;;13.69;57.92;92984.50;5063319;28;20037;-45
2024/04/01 05:10:11;;;;;;;2.17;0.90;;;;;;;13.38;58.24;92977.50;5080472;28;20039;-44
2024/04/01 05:12:36;;;;;;;3.67;1.10;;;;;;;13.10;59.18;92979.34;5070382;28;20029;-48
2024/04/01 05:15:02;;;;;;;2.10;0.82;;;;;;;13.05;59.33;92989.72;5067669;28;20424;-50
2024/04/01 05:17:27;;;;;;;0.70;0.70;;;;;;;13.09;59.10;92985.56;5037399;28;20071;-47
2024/04/01 05:19:53;;;;;;;3.38;0.80;;;;;;;13.00;59.30;92997.50;5069768;28;20405;-48
2024/04/01 05:22:19;;;;;;;2.47;0.73;;;;;;;12.81;60.09;92990.03;5053210;28;20032;-47
2024/04/01 05:24:45;;;;;;;2.80;0.90;;;;;;;13.09;59.54;93009.06;5062169;28;20071;-47
2024/04/01 05:27:10;;;;;;;2.53;0.80;;;;;;;12.93;60.01;93029.00;5066557;28;20021;-48
2024/04/01 05:29:36;;;;;;;1.23;0.70;;;;;;;13.00;59.71;93039.25;5053207;28;20047;-47
2024/04/01 05:32:01;;;;;;;2.33;0.90;;;;;;;13.04;59.19;93059.41;5053959;28;20127;-49
2024/04/01 05:34:28;;;;;;;1.67;0.80;;;;;;;12.79;60.20;93080.75;5071566;28;20459;-43
2024/04/01 05:36:55;;;;;;;1.45;0.50;;;;;;;13.11;59.27;93098.34;5053657;28;20096;-47
2024/04/01 05:39:20;;;;;;;1.85;0.63;;;;;;;12.92;58.97;93074.38;5071402;28;20036;-43
2024/04/01 05:41:46;;;;;;;1.33;0.40;;;;;;;12.88;58.60;93094.19;5067682;28;20028;-44
2024/04/01 05:44:12;;;;;;;1.40;0.30;;;;;;;12.80;58.27;93124.09;5052709;28;20086;-45
2024/04/01 05:46:37;;;;;;;1.20;0.30;;;;;;;12.60;59.63;93145.47;5052833;28;20036;-43
2024/04/01 05:49:03;;;;;;;1.45;0.30;;;;;;;12.63;58.89;93146.81;5071433;28;20094;-46
2024/04/01 05:51:28;;;;;;;0.80;0.40;;;;;;;12.50;59.23;93140.13;5065969;28;20029;-46
2024/04/01 05:53:53;;;;;;;0.63;0.20;;;;;;;12.50;57.73;93148.72;5064014;28;20042;-45
2024/04/01 05:56:19;;;;;;;0.52;0.30;;;;;;;12.58;57.99;93157.19;5070157;28;20124;-45
2024/04/01 05:58:44;;;;;;;0.20;0.20;;;;;;;12.61;58.38;93182.78;5034771;28;20025;-46
2024/04/01 06:01:10;;;;;;;0.32;0.10;;;;;;;12.23;58.51;93190.31;5070903;28;20028;-45
2024/04/01 06:03:35;;;;;;;0.25;0.20;;;;;;;12.11;58.72;93179.97;5065796;28;20051;-46
2024/04/01 06:06:00;;;;;;;0.10;0.10;;;;;;;12.09;58.47;93181.25;5068093;28;20111;-45
2024/04/01 06:08:26;;;;;;;1.52;0.20;;;;;;;12.42;57.58;93195.28;5042039;28;20152;-45
2024/04/01 06:10:51;;;;;;;0.35;0.20;;;;;;;12.20;57.48;93208.25;5058101;28;20024;-46
2024/04/01 06:13:17;;;;;;;0.32;0.20;;;;;;;12.12;57.79;93215.41;5069027;28;20024;-47
2024/04/01 06:15:43;;;;;;;0.30;0.10;;;;;;;11.97;58.62;93219.59;5068073;28;20029;-47
2024/04/01 06:18:09;;;;;;;0.50;0.10;;;;;;;11.86;59.07;93236.81;5064569;28;20186;-45
2024/04/01 06:20:34;;;;;;;0.10;0.10;;;;;;;11.88;58.84;93219.16;5052720;28;20123;-48
2024/04/01 06:23:00;;;;;;;0.63;0.15;;;;;;;11.82;59.03;93175.81;5056487;28;20464;-47
2024/04/01 06:25:26;;;;;;;0.38;0.10;;;;;;;11.86;58.07;93202.97;5060050;28;20446;-44
2024/04/01 06:27:52;;;;;;;0.20;0.10;;;;;;;11.85;57.76;93211.81;5063007;28;20032;-46
2024/04/01 06:30:17;;;;;;;0.73;0.40;;;;;;;11.61;58.05;93243.16;5036037;28;20040;-47
2024/04/01 06:32:43;;;;;;;1.08;0.63;;;;;;;11.83;57.31;93232.88;5073034;28;20032;-46
2024/04/01 06:35:08;;;;;;;1.58;0.68;;;;;;;11.63;58.52;93215.09;5068112;28;20064;-45
2024/04/01 06:37:34;;;;;;;10.65;6.80;;;;;;;12.01;56.53;93246.75;5062876;28;20039;-45
2024/04/01 06:40:00;;;;;;;1.58;0.95;;;;;;;11.77;57.06;93233.81;5069145;28;20078;-49
2024/04/01 06:42:26;;;;;;;0.55;0.30;;;;;;;11.92;55.83;93228.13;5068917;28;20124;-45
2024/04/01 06:44:51;;;;;;;0.10;0.10;;;;;;;11.77;56.78;93227.84;5049923;28;20127;-44
2024/04/01 06:47:16;;;;;;;1.08;0.15;;;;;;;11.92;55.96;93231.50;5051875;28;20036;-45
2024/04/01 06:49:42;;;;;;;0.10;0.10;;;;;;;11.76;57.18;93232.22;5063578;28;20029;-44
2024/04/01 06:52:09;;;;;;;2.75;0.65;;;;;;;11.89;57.08;93220.75;5070470;28;20035;-43
2024/04/01 06:54:34;;;;;;;1.60;0.75;;;;;;;12.02;55.90;93207.44;5055439;28;20025;-45
2024/04/01 06:57:01;;;;;;;0.15;0.13;;;;;;;11.91;57.31;93242.94;5066327;28;20033;-47
2024/04/01 06:59:26;;;;;;;0.30;0.10;;;;;;;11.73;57.26;93256.94;5065819;28;20036;-45
2024/04/01 07:01:52;;;;;;;1.77;0.10;;;;;;;11.87;56.15;93249.63;5065514;28;20086;-46
2024/04/01 07:04:18;;;;;;;0.63;0.13;;;;;;;11.67;56.47;93251.84;5052152;28;20157;-43
2024/04/01 07:06:43;;;;;;;0.28;0.22;;;;;;;11.82;55.84;93218.28;5067839;28;20028;-44
2024/04/01 07:09:08;;;;;;;0.20;0.20;;;;;;;11.70;55.36;93226.13;5045726;28;20033;-43
2024/04/01 07:11:34;;;;;;;0.65;0.30;;;;;;;11.68;57.34;93243.03;5067636;28;20033;-46
2024/04/01 07:13:59;;;;;;;0.10;0.10;;;;;;;11.27;56.48;93217.03;5051612;28;20035;-44
2024/04/01 07:16:25;;;;;;;0.17;0.10;;;;;;;11.25;57.26;93215.66;5063214;28;20036;-44
2024/04/01 07:18:50;;;;;;;0.20;0.20;;;;;;;11.37;57.30;93246.88;5066553;28;20029;-43
2024/04/01 07:21:15;;;;;;;0.20;0.20;;;;;;;11.41;57.54;93271.41;5069960;28;20078;-43
2024/04/01 07:23:41;;;;;;;0.10;0.10;;;;;;;11.36;56.66;93274.69;5068650;28;20028;-45
2024/04/01 07:26:06;;;;;;;0.25;0.10;;;;;;;11.29;57.20;93281.84;5058484;28;20029;-44
2024/04/01 07:28:32;;;;;;;0.30;0.20;;;;;;;11.27;57.67;93278.66;5068630;28;20110;-44
2024/04/01 07:31:05;;;;;;;0.38;0.20;;;;;;;11.55;56.05;93283.91;5066867;28;20028;-43
2024/04/01 07:33:30;;;;;;;0.20;0.10;;;;;;;11.25;57.87;93298.94;5068161;28;20036;-45
2024/04/01 07:35:55;;;;;;;1.08;0.20;;;;;;;11.15;58.57;93292.47;5051761;28;20086;-44
2024/04/01 07:38:21;;;;;;;0.80;0.20;;;;;;;11.08;57.53;93296.22;5051203;28;20024;-44
2024/04/01 07:40:46;;;;;;;0.30;0.10;;;;;;;10.93;57.66;93288.91;5064106;28;20023;-44
2024/04/01 07:43:12;;;;;;;0.43;0.10;;;;;;;11.05;57.94;93307.09;5060718;28;20052;-43
2024/04/01 07:45:37;;;;;;;0.20;0.20;;;;;;;10.95;58.42;93321.47;5068478;28;20039;-46
2024/04/01 07:48:04;;;;;;;0.52;0.28;;;;;;;10.83;58.58;93318.06;5046329;28;20098;-49
2024/04/01 07:50:30;;;;;;;0.32;0.32;;;;;;;10.80;58.72;93323.72;5069249;28;20083;-47
2024/04/01 07:52:55;;;;;;;0.35;0.35;;;;;;;10.79;58.77;93316.94;5068822;28;20051;-43
2024/04/01 07:55:21;;;;;;;1.13;0.30;;;;;;;10.87;58.89;93315.78;5069668;28;20020;-46
2024/04/01 07:57:46;;;;;;;0.50;0.30;;;;;;;11.03;58.22;93333.34;5072139;28;20043;-43
2024/04/01 08:00:12;;;;;;;2.15;0.30;;;;;;;10.98;58.74;93363.66;5070062;28;20042;-46
2024/04/01 08:02:37;;;;;;;0.85;0.20;;;;;;;11.20;58.81;93351.66;5069786;28;20024;-44
2024/04/01 08:05:03;;;;;;;0.50;0.30;;;;;;;10.93;60.25;93341.72;5072481;28;20036;-47
2024/04/01 08:07:28;;;;;;;0.43;0.20;;;;;;;11.12;60.10;93352.81;5071710;28;20072;-45
2024/04/01 08:09:53;;;;;;;1.00;0.32;;;;;;;11.29;59.36;93365.09;5069510;28;20040;-45
2024/04/01 08:12:19;;;;;;;0.30;0.30;;;;;;;11.35;58.27;93385.84;5068523;28;20031;-47
2024/04/01 08:14:44;;;;;;;0.30;0.22;;;;;;;11.47;57.93;93400.66;5069925;28;20032;-50
2024/04/01 08:17:10;;;;;;;0.22;0.20;;;;;;;11.30;57.42;93392.72;5067551;28;20354;-43
2024/04/01 08:19:35;;;;;;;0.43;0.30;;;;;;;11.24;57.91;93378.81;5070116;28;20025;-47
2024/04/01 08:22:00;;;;;;;0.70;0.28;;;;;;;11.31;57.43;93389.13;5070916;28;20058;-43
2024/04/01 08:24:26;;;;;;;0.30;0.30;;;;;;;11.27;58.40;93406.19;5072321;28;20032;-44
2024/04/01 08:26:51;;;;;;;0.47;0.20;;;;;;;11.18;58.60;93423.19;5069900;28;20475;-44
2024/04/01 08:29:17;;;;;;;0.30;0.22;;;;;;;11.03;59.21;93415.81;5070011;28;20032;-44
2024/04/01 08:31:43;;;;;;;1.27;0.20;;;;;;;11.20;58.75;93424.53;5072144;28;20063;-45
2024/04/01 08:34:08;;;;;;;0.75;0.30;;;;;;;11.29;59.08;93441.41;5071915;28;20044;-46
2024/04/01 08:36:35;;;;;;;1.15;0.30;;;;;;;11.21;60.02;93454.72;5069198;28;20062;-44
2024/04/01 08:39:01;;;;;;;1.10;0.30;;;;;;;11.40;59.05;93441.63;5083283;28;20094;-48
2024/04/01 08:41:39;;;;;;;0.47;0.30;;;;;;;11.28;58.16;93426.78;5069603;28;20107;-47
2024/04/01 08:44:15;;;;;;;0.20;0.10;;;;;;;11.27;59.18;93445.22;5069515;28;20074;-48
2024/04/01 08:46:44;;;;;;;0.63;0.20;;;;;;;11.39;58.45;93460.88;5070946;28;20060;-44
2024/04/01 08:49:13;;;;;;;0.20;0.20;;;;;;;11.46;58.55;93449.34;5067864;28;20056;-49
2024/04/01 08:51:40;;;;;;;0.47;0.30;;;;;;;11.40;59.23;93452.03;5067183;28;20469;-46
2024/04/01 08:54:11;;;;;;;0.20;0.20;;;;;;;11.31;59.87;93468.00;5068638;28;20028;-45
2024/04/01 08:56:40;;;;;;;0.50;0.30;;;;;;;11.38;59.96;93480.09;5068568;28;20056;-46
2024/04/01 08:59:07;;;;;;;0.52;0.20;;;;;;;11.48;59.47;93501.16;5071699;28;20027;-48
2024/04/01 09:01:33;;;;;;;0.10;0.10;;;;;;;11.57;58.84;93497.19;5069867;28;20112;-47
2024/04/01 09:03:58;;;;;;;0.63;0.10;;;;;;;11.48;59.02;93493.34;5068914;28;20175;-47
2024/04/01 09:06:24;;;;;;;1.58;0.30;;;;;;;11.52;58.81;93494.50;5069493;28;20031;-46
2024/04/01 09:08:52;;;;;;;0.10;0.10;;;;;;;11.43;58.50;93504.44;5070141;28;20047;-47
2024/04/01 09:11:18;;;;;;;0.30;0.13;;;;;;;11.44;58.84;93516.44;5070219;28;20024;-45
2024/04/01 09:13:46;;;;;;;0.80;0.20;;;;;;;11.41;58.75;93534.31;5053611;28;20063;-46
2024/04/01 09:16:12;;;;;;;0.20;0.20;;;;;;;11.52;59.22;93549.19;5086772;28;20028;-46
2024/04/01 09:18:37;;;;;;;0.75;0.32;;;;;;;11.51;58.20;93548.38;5080418;28;20029;-46
2024/04/01 09:21:04;;;;;;;0.52;0.28;;;;;;;11.51;57.81;93544.97;5065233;28;20035;-47
2024/04/01 09:23:33;;;;;;;0.40;0.30;;;;;;;11.21;59.45;93558.81;5070529;28;20029;-47
2024/04/01 09:25:59;;;;;;;0.50;0.30;;;;;;;11.52;57.79;93573.41;5070118;28;20028;-45
2024/04/01 09:28:25;;;;;;;0.40;0.40;;;;;;;11.23;59.03;93575.03;5066163;28;20028;-47
2024/04/01 09:30:51;;;;;;;0.47;0.30;;;;;;;11.28;58.07;93558.72;5069869;28;20171;-44
2024/04/01 09:33:16;;;;;;;0.60;0.32;;;;;;;11.20;58.64;93559.06;5071378;28;20095;-45
2024/04/01 09:35:42;;;;;;;1.23;0.52;;;;;;;10.70;59.88;93555.69;5068672;28;20063;-43
2024/04/01 09:38:08;;;;;;;0.50;0.38;;;;;;;10.75;59.77;93568.03;5069853;28;20048;-44
2024/04/01 09:40:33;;;;;;;0.80;0.40;;;;;;;10.74;60.07;93569.06;5069904;28;20071;-48
2024/04/01 09:43:00;;;;;;;1.05;0.50;;;;;;;10.59;60.83;93559.03;5067959;28;20031;-46
2024/04/01 09:45:28;;;;;;;1.25;0.70;;;;;;;10.78;59.42;93557.19;5076717;28;20036;-46
2024/04/01 09:47:54;;;;;;;3.35;1.58;;;;;;;10.13;60.59;93565.50;5063828;28;20053;-47
2024/04/01 09:50:21;;;;;;;6.57;4.82;;;;;;;10.26;60.88;93560.16;5069114;28;20021;-45
2024/04/01 09:52:46;;;;;;;1.00;0.88;;;;;;;10.42;60.07;93556.22;5066225;28;20039;-47
2024/04/01 09:55:23;;;;;;;0.80;0.80;;;;;;;10.15;59.80;93550.50;5070928;28;20036;-44
2024/04/01 09:58:22;;;;;;;1.08;0.88;;;;;;;10.27;60.29;93558.34;5064980;28;20047;-48
2024/04/01 10:00:58;;;;;;;0.43;0.22;;;;;;;10.49;58.44;93580.34;5061353;28;20032;-45
2024/04/01 10:03:30;;;;;;;1.65;0.20;;;;;;;10.69;58.64;93579.31;5069425;28;20036;-45
2024/04/01 10:06:33;;;;;;;1.00;0.20;;;;;;;10.76;58.49;93580.03;5067834;28;20450;-45
2024/04/01 10:09:30;;;;;;;0.20;0.15;;;;;;;10.67;58.89;93578.75;5064744;28;20097;-49
2024/04/01 10:12:24;;;;;;;0.50;0.30;;;;;;;10.72;58.80;93584.09;5084567;28;20025;-45
2024/04/01 10:15:33;;;;;;;0.52;0.30;;;;;;;10.91;59.60;93583.03;5063917;28;20032;-46
2024/04/01 10:18:03;;;;;;;0.85;0.20;;;;;;;10.99;57.56;93596.75;5055310;28;20037;-45
2024/04/01 10:21:11;;;;;;;0.20;0.20;;;;;;;11.08;57.86;93588.44;5064235;28;20111;-47
2024/04/01 10:23:45;;;;;;;0.20;0.20;;;;;;;10.99;57.99;93599.38;5083114;28;20040;-43
2024/04/01 10:26:33;;;;;;;0.88;0.30;;;;;;;10.73;59.87;93603.88;5069105;28;20484;-46
2024/04/01 10:29:52;;;;;;;0.50;0.30;;;;;;;10.79;59.28;93613.38;5069490;28;20037;-46
2024/04/01 10:32:50;;;;;;;1.10;0.70;;;;;;;10.54;60.32;93611.66;5065470;28;20036;-45
2024/04/01 10:35:46;;;;;;;0.52;0.50;;;;;;;10.52;60.54;93625.91;5068334;28;20039;-44
2024/04/01 10:38:32;;;;;;;0.57;0.50;;;;;;;10.25;61.15;93607.94;5074020;28;20056;-45
2024/04/01 10:41:35;;;;;;;1.08;0.43;;;;;;;10.06;61.72;93601.91;5063062;28;20406;-47
2024/04/01 10:44:25;;;;;;;0.50;0.43;;;;;;;10.16;61.71;93623.00;5061959;28;20029;-47
2024/04/01 10:47:18;;;;;;;0.50;0.50;;;;;;;10.16;62.10;93628.19;5063543;28;20052;-45
2024/04/01 10:50:10;;;;;;;0.60;0.50;;;;;;;10.02;62.39;93639.72;5071301;28;20036;-44
2024/04/01 10:52:47;;;;;;;0.98;0.60;;;;;;;9.91;62.64;93646.38;5065797;28;20131;-44
2024/04/01 10:55:53;;;;;;;0.45;0.40;;;;;;;9.55;64.73;93639.25;5065890;28;20036;-45
2024/04/01 10:58:54;;;;;;;0.32;0.30;;;;;;;9.73;63.65;93638.56;5065225;28;20045;-46
2024/04/01 11:01:26;;;;;;;0.20;0.20;;;;;;;9.78;62.98;93647.28;5074714;28;20040;-46
2024/04/01 11:04:17;;;;;;;0.93;0.43;;;;;;;9.83;63.17;93666.66;5084272;28;20028;-47
2024/04/01 11:07:15;;;;;;;0.35;0.32;;;;;;;10.03;63.04;93689.84;5063866;28;20046;-44
2024/04/01 11:09:49;;;;;;;0.60;0.50;;;;;;;10.18;62.52;93698.94;5060160;28;20376;-43
2024/04/01 11:12:29;;;;;;;0.30;0.30;;;;;;;10.22;62.37;93717.47;5083876;28;20070;-45
2024/04/01 11:14:58;;;;;;;0.80;0.43;;;;;;;10.07;62.61;93720.41;5063139;28;20032;-45
2024/04/01 11:17:24;;;;;;;1.73;0.35;;;;;;;10.07;62.29;93711.81;5083429;28;20036;-43
2024/04/01 11:20:12;;;;;;;0.45;0.40;;;;;;;9.75;63.92;93704.84;5067664;28;20094;-46
2024/04/01 11:22:56;;;;;;;0.20;0.20;;;;;;;9.88;63.65;93708.34;5067523;28;20075;-45
2024/04/01 11:25:53;;;;;;;0.20;0.20;;;;;;;9.96;62.79;93726.28;5068101;28;20532;-47
2024/04/01 11:28:53;;;;;;;1.73;0.40;;;;;;;9.89;62.81;93722.94;5105692;28;20094;-46
2024/04/01 11:31:22;;;;;;;0.40;0.40;;;;;;;9.81;62.86;93713.59;5065318;28;20025;-47
2024/04/01 11:34:30;;;;;;;0.30;0.30;;;;;;;9.88;63.25;93744.69;5072064;28;20029;-45
2024/04/01 11:37:28;;;;;;;0.90;0.40;;;;;;;10.15;62.29;93735.72;5068306;28;20043;-45
2024/04/01 11:39:57;;;;;;;0.43;0.30;;;;;;;10.24;61.15;93728.47;5059201;28;20412;-45
2024/04/01 11:42:27;;;;;;;1.50;0.30;;;;;;;10.09;62.11;93746.16;5070114;28;20028;-46